Time;durP1;ratioP1;P1;durP2;ratioP2;P2;SDS_P1;SDS_P2;PMS_P1;PMS_P2;Temp;Humidity;BMP_temperature;BMP_pressure;BME280_temperature;BME280_humidity;BME280_pressure;Samples;Min_cycle;Max_cycle;Signal;HPM_P1;HPM_P2
2023/10/21 00:01:31;;;;;;;5.25;3.42;;;;;;;;;;5047916;28;20491;-84
2023/10/21 00:03:56;;;;;;;7.18;3.40;;;;;;;;;;5063832;28;20033;-85
2023/10/21 00:06:22;;;;;;;7.35;3.00;;;;;;;;;;5066464;28;20504;-84
2023/10/21 00:08:47;;;;;;;4.93;3.10;;;;;;;;;;5047502;28;20035;-81
2023/10/21 00:11:13;;;;;;;5.60;3.08;;;;;;;;;;5046822;28;20036;-79
2023/10/21 00:13:39;;;;;;;5.55;3.00;;;;;;;;;;5048520;28;20043;-79
2023/10/21 00:16:04;;;;;;;7.30;3.33;;;;;;;;;;5044053;28;20043;-79
2023/10/21 00:18:30;;;;;;;5.40;3.17;;;;;;;;;;5050540;28;20062;-79
2023/10/21 00:20:55;;;;;;;7.05;3.10;;;;;;;;;;5046044;28;20017;-79
2023/10/21 00:23:24;;;;;;;7.05;3.10;;;;;;;;;;5058401;28;20429;-79
2023/10/21 00:25:49;;;;;;;6.68;3.45;;;;;;;;;;5048595;28;20537;-80
2023/10/21 00:28:15;;;;;;;7.85;2.90;;;;;;;;;;5065293;28;20029;-79
2023/10/21 00:30:41;;;;;;;7.88;3.40;;;;;;;;;;5070966;28;20024;-78
2023/10/21 00:33:06;;;;;;;6.80;3.42;;;;;;;;;;5052137;28;20032;-80
2023/10/21 00:35:32;;;;;;;7.00;3.03;;;;;;;;;;5052074;28;20070;-79
2023/10/21 00:37:57;;;;;;;6.22;3.22;;;;;;;;;;5066184;28;20035;-79
2023/10/21 00:40:23;;;;;;;6.55;2.97;;;;;;;;;;5052717;28;20020;-79
2023/10/21 00:42:49;;;;;;;5.90;3.53;;;;;;;;;;5049282;28;20036;-79
2023/10/21 00:45:14;;;;;;;6.72;3.08;;;;;;;;;;5048228;28;20032;-79
2023/10/21 00:47:40;;;;;;;6.68;3.38;;;;;;;;;;5065325;28;20020;-81
2023/10/21 00:50:06;;;;;;;6.22;3.13;;;;;;;;;;5047162;28;20024;-79
2023/10/21 00:52:43;;;;;;;5.15;2.85;;;;;;;;;;5055279;28;20027;-79
2023/10/21 00:55:11;;;;;;;4.72;3.10;;;;;;;;;;5068547;28;20049;-80
2023/10/21 00:57:37;;;;;;;6.28;3.28;;;;;;;;;;5070330;28;20064;-79
2023/10/21 01:00:10;;;;;;;6.07;3.40;;;;;;;;;;5068541;28;20036;-79
2023/10/21 01:02:36;;;;;;;;;;;;;;;;;;5054271;28;20028;-78
2023/10/21 01:05:03;;;;;;;5.70;3.47;;;;;;;;;;5055902;28;19920;-79
2023/10/21 01:07:35;;;;;;;7.15;3.50;;;;;;;;;;5048241;28;20033;-79
2023/10/21 01:10:03;;;;;;;6.35;3.78;;;;;;;;;;5046488;28;20035;-79
2023/10/21 01:12:29;;;;;;;7.53;3.60;;;;;;;;;;5057441;28;20024;-79
2023/10/21 01:14:55;;;;;;;7.03;3.60;;;;;;;;;;5040454;28;20032;-80
2023/10/21 01:17:20;;;;;;;6.70;3.47;;;;;;;;;;5038091;28;20025;-79
2023/10/21 01:19:46;;;;;;;6.90;3.78;;;;;;;;;;5058001;28;20042;-78
2023/10/21 01:22:11;;;;;;;6.28;4.38;;;;;;;;;;5049515;28;20024;-79
2023/10/21 01:24:36;;;;;;;6.03;3.60;;;;;;;;;;5042677;28;20438;-79
2023/10/21 01:27:02;;;;;;;5.13;3.45;;;;;;;;;;5062426;28;20043;-79
2023/10/21 01:29:28;;;;;;;6.18;3.85;;;;;;;;;;5050148;28;20056;-80
2023/10/21 01:31:54;;;;;;;8.10;4.03;;;;;;;;;;5050979;28;22337;-79
2023/10/21 01:34:19;;;;;;;7.65;4.18;;;;;;;;;;5064662;28;20022;-78
2023/10/21 01:36:46;;;;;;;6.80;3.80;;;;;;;;;;5062305;28;20675;-79
2023/10/21 01:39:11;;;;;;;6.88;3.70;;;;;;;;;;5066510;28;20021;-79
2023/10/21 01:41:39;;;;;;;6.85;3.53;;;;;;;;;;5062920;28;20044;-78
2023/10/21 01:44:05;;;;;;;9.13;3.65;;;;;;;;;;5066554;28;20034;-78
2023/10/21 01:46:30;;;;;;;5.13;3.20;;;;;;;;;;5057751;28;20539;-79
2023/10/21 01:48:56;;;;;;;7.47;3.83;;;;;;;;;;5063531;28;20071;-79
2023/10/21 01:51:21;;;;;;;5.90;3.15;;;;;;;;;;5044222;28;20033;-79
2023/10/21 01:53:46;;;;;;;5.43;3.58;;;;;;;;;;5053784;28;20514;-79
2023/10/21 01:56:12;;;;;;;7.97;3.50;;;;;;;;;;5066049;28;20036;-78
2023/10/21 01:58:37;;;;;;;6.25;3.22;;;;;;;;;;5064999;28;20021;-79
2023/10/21 02:01:11;;;;;;;9.05;3.72;;;;;;;;;;5047824;28;20123;-82
2023/10/21 02:03:37;;;;;;;5.63;3.63;;;;;;;;;;5057407;28;20020;-80
2023/10/21 02:06:09;;;;;;;7.20;3.40;;;;;;;;;;5035429;28;20144;-82
2023/10/21 02:08:35;;;;;;;6.30;3.20;;;;;;;;;;5047711;28;20187;-80
2023/10/21 02:11:00;;;;;;;10.13;3.72;;;;;;;;;;5036888;28;20109;-79
2023/10/21 02:13:26;;;;;;;6.65;3.45;;;;;;;;;;5039923;28;20084;-81
2023/10/21 02:15:52;;;;;;;5.30;3.40;;;;;;;;;;5036305;28;20032;-80
2023/10/21 02:18:19;;;;;;;9.55;3.78;;;;;;;;;;5056745;28;20151;-82
2023/10/21 02:20:44;;;;;;;5.85;3.40;;;;;;;;;;5050145;28;20029;-79
2023/10/21 02:23:11;;;;;;;5.93;3.28;;;;;;;;;;5049871;28;20682;-78
2023/10/21 02:25:39;;;;;;;8.02;3.72;;;;;;;;;;5052612;28;20167;-80
2023/10/21 02:28:05;;;;;;;7.55;3.40;;;;;;;;;;5046395;28;20497;-79
2023/10/21 02:30:30;;;;;;;6.35;3.25;;;;;;;;;;5066351;28;20060;-79
2023/10/21 02:32:55;;;;;;;6.05;3.47;;;;;;;;;;5051877;28;20021;-79
2023/10/21 02:35:21;;;;;;;5.18;3.25;;;;;;;;;;5062152;28;20055;-79
2023/10/21 02:37:47;;;;;;;5.45;3.63;;;;;;;;;;5059911;28;20024;-79
2023/10/21 02:40:15;;;;;;;6.50;4.10;;;;;;;;;;5042319;28;20684;-79
2023/10/21 02:42:42;;;;;;;5.72;3.08;;;;;;;;;;5047567;28;20063;-79
2023/10/21 02:45:07;;;;;;;6.38;3.55;;;;;;;;;;5063381;28;20032;-79
2023/10/21 02:47:34;;;;;;;6.07;3.55;;;;;;;;;;5063937;28;20081;-80
2023/10/21 02:49:59;;;;;;;6.68;3.55;;;;;;;;;;5046657;28;20432;-79
2023/10/21 02:52:25;;;;;;;5.90;3.55;;;;;;;;;;5051172;28;20025;-79
2023/10/21 02:54:50;;;;;;;7.40;4.00;;;;;;;;;;5051332;28;20124;-80
2023/10/21 02:57:15;;;;;;;7.82;3.90;;;;;;;;;;5072873;28;20037;-80
2023/10/21 02:59:41;;;;;;;7.15;3.60;;;;;;;;;;5064987;28;20043;-79
2023/10/21 03:02:06;;;;;;;6.78;3.60;;;;;;;;;;5050147;28;20487;-78
2023/10/21 03:04:32;;;;;;;6.90;3.75;;;;;;;;;;5063517;28;20025;-79
2023/10/21 03:06:57;;;;;;;6.50;3.63;;;;;;;;;;5051390;28;20086;-79
2023/10/21 03:09:23;;;;;;;9.90;3.95;;;;;;;;;;5059531;28;20079;-80
2023/10/21 03:11:48;;;;;;;5.90;3.50;;;;;;;;;;5051993;28;20028;-80
2023/10/21 03:14:13;;;;;;;7.55;3.22;;;;;;;;;;5050875;28;20079;-79
2023/10/21 03:16:39;;;;;;;6.45;3.58;;;;;;;;;;5034649;28;21891;-80
2023/10/21 03:19:04;;;;;;;6.25;3.20;;;;;;;;;;5039808;28;20174;-80
2023/10/21 03:21:30;;;;;;;5.55;3.55;;;;;;;;;;5065017;28;20095;-79
2023/10/21 03:23:56;;;;;;;7.15;3.45;;;;;;;;;;5050224;28;20028;-79
2023/10/21 03:26:21;;;;;;;7.93;3.33;;;;;;;;;;5066096;28;20032;-82
2023/10/21 03:28:47;;;;;;;6.95;3.40;;;;;;;;;;5058266;28;20456;-80
2023/10/21 03:31:13;;;;;;;6.32;3.38;;;;;;;;;;5048530;28;20055;-79
2023/10/21 03:33:38;;;;;;;6.07;3.60;;;;;;;;;;5046266;28;20089;-78
2023/10/21 03:36:05;;;;;;;5.18;3.65;;;;;;;;;;5043124;28;20510;-79
2023/10/21 03:38:31;;;;;;;10.57;3.80;;;;;;;;;;5044762;28;20040;-79
2023/10/21 03:41:05;;;;;;;5.57;3.35;;;;;;;;;;5061474;28;20252;-79
2023/10/21 03:43:31;;;;;;;8.98;4.05;;;;;;;;;;5061196;28;20473;-85
2023/10/21 03:45:57;;;;;;;7.38;3.35;;;;;;;;;;5061882;28;20439;-85
2023/10/21 03:48:23;;;;;;;6.45;3.38;;;;;;;;;;5062562;28;20035;-85
2023/10/21 03:50:51;;;;;;;8.32;4.03;;;;;;;;;;5062147;28;20424;-82
2023/10/21 03:53:17;;;;;;;9.55;3.53;;;;;;;;;;5059730;28;20031;-82
2023/10/21 03:55:43;;;;;;;5.40;3.40;;;;;;;;;;5057679;28;20368;-82
2023/10/21 03:58:12;;;;;;;7.93;3.38;;;;;;;;;;5058118;28;20107;-82
2023/10/21 04:00:38;;;;;;;6.05;3.42;;;;;;;;;;5060068;28;20037;-82
2023/10/21 04:03:04;;;;;;;5.90;3.10;;;;;;;;;;5063799;28;20037;-82
2023/10/21 04:05:30;;;;;;;10.38;4.40;;;;;;;;;;5048576;28;20170;-82
2023/10/21 04:07:55;;;;;;;5.68;3.05;;;;;;;;;;5064355;28;20024;-82
2023/10/21 04:10:21;;;;;;;5.70;3.22;;;;;;;;;;5066124;28;20039;-82
2023/10/21 04:12:47;;;;;;;7.78;3.60;;;;;;;;;;5047378;28;20039;-82
2023/10/21 04:15:13;;;;;;;6.35;3.03;;;;;;;;;;5061206;28;20059;-83
2023/10/21 04:17:39;;;;;;;6.40;3.22;;;;;;;;;;5046086;28;20056;-82
2023/10/21 04:20:06;;;;;;;4.28;2.88;;;;;;;;;;5065687;28;20115;-83
2023/10/21 04:22:31;;;;;;;7.40;3.20;;;;;;;;;;5050909;28;20033;-83
2023/10/21 04:24:58;;;;;;;4.95;2.70;;;;;;;;;;5046521;28;20398;-82
2023/10/21 04:27:23;;;;;;;5.93;2.92;;;;;;;;;;5046654;28;20552;-82
2023/10/21 04:29:49;;;;;;;6.70;2.80;;;;;;;;;;5061200;28;20112;-83
2023/10/21 04:32:14;;;;;;;7.32;3.10;;;;;;;;;;5064627;28;20662;-82
2023/10/21 04:34:40;;;;;;;5.88;2.85;;;;;;;;;;5054929;28;20016;-82
2023/10/21 04:37:05;;;;;;;6.03;2.90;;;;;;;;;;5052711;28;20036;-82
2023/10/21 04:39:33;;;;;;;5.72;2.78;;;;;;;;;;5047610;28;20024;-82
2023/10/21 04:41:58;;;;;;;5.43;2.72;;;;;;;;;;5064705;28;20020;-81
2023/10/21 04:44:24;;;;;;;7.85;3.10;;;;;;;;;;5050035;28;20029;-81
2023/10/21 04:46:49;;;;;;;5.75;2.47;;;;;;;;;;5069854;28;20028;-81
2023/10/21 04:49:14;;;;;;;7.75;3.00;;;;;;;;;;5071614;28;20033;-81
2023/10/21 04:51:40;;;;;;;3.63;2.63;;;;;;;;;;5060787;28;20024;-81
2023/10/21 04:54:07;;;;;;;6.80;2.85;;;;;;;;;;5071796;28;20077;-81
2023/10/21 04:56:33;;;;;;;4.13;2.80;;;;;;;;;;5070462;28;20043;-81
2023/10/21 04:58:59;;;;;;;8.50;3.00;;;;;;;;;;5049946;28;20487;-81
2023/10/21 05:01:24;;;;;;;5.85;2.97;;;;;;;;;;5065726;28;20058;-81
2023/10/21 05:03:53;;;;;;;8.43;3.53;;;;;;;;;;5069533;28;20024;-80
2023/10/21 05:06:19;;;;;;;6.65;2.90;;;;;;;;;;5053914;28;20023;-81
2023/10/21 05:08:45;;;;;;;5.93;2.90;;;;;;;;;;5065197;28;20024;-81
2023/10/21 05:11:11;;;;;;;6.20;3.00;;;;;;;;;;5070214;28;20114;-81
2023/10/21 05:13:36;;;;;;;6.68;3.28;;;;;;;;;;5070774;28;20041;-81
2023/10/21 05:16:01;;;;;;;4.72;2.88;;;;;;;;;;5043663;28;20040;-81
2023/10/21 05:18:27;;;;;;;5.28;2.67;;;;;;;;;;5044638;28;20020;-81
2023/10/21 05:20:52;;;;;;;6.53;2.83;;;;;;;;;;5062923;28;20472;-81
2023/10/21 05:23:18;;;;;;;6.28;3.28;;;;;;;;;;5045188;28;20423;-85
2023/10/21 05:25:49;;;;;;;5.43;2.50;;;;;;;;;;5048658;28;20020;-84
2023/10/21 05:28:15;;;;;;;7.85;3.08;;;;;;;;;;5065145;28;20511;-85
2023/10/21 05:30:42;;;;;;;7.22;2.58;;;;;;;;;;5048250;28;20020;-85
2023/10/21 05:33:07;;;;;;;5.55;2.58;;;;;;;;;;5062128;28;20020;-85
2023/10/21 05:35:33;;;;;;;6.43;3.05;;;;;;;;;;5047720;28;20499;-84
2023/10/21 05:37:58;;;;;;;6.82;2.60;;;;;;;;;;5043440;28;20071;-82
2023/10/21 05:40:25;;;;;;;7.43;2.72;;;;;;;;;;5031661;28;20029;-85
2023/10/21 05:42:50;;;;;;;9.05;3.17;;;;;;;;;;5060959;28;20024;-85
2023/10/21 05:45:15;;;;;;;5.10;2.35;;;;;;;;;;5065682;28;20368;-85
2023/10/21 05:47:41;;;;;;;5.53;2.40;;;;;;;;;;5062989;28;20024;-84
2023/10/21 05:50:07;;;;;;;5.43;2.80;;;;;;;;;;5049364;28;20041;-85
2023/10/21 05:52:32;;;;;;;7.20;2.80;;;;;;;;;;5046624;28;20069;-81
2023/10/21 05:54:57;;;;;;;7.55;2.40;;;;;;;;;;5063492;28;20120;-80
2023/10/21 05:57:23;;;;;;;7.45;3.08;;;;;;;;;;5057776;28;20066;-81
2023/10/21 05:59:48;;;;;;;5.85;2.60;;;;;;;;;;5058987;28;20123;-81
2023/10/21 06:02:13;;;;;;;6.00;2.90;;;;;;;;;;5044076;28;20024;-81
2023/10/21 06:04:39;;;;;;;8.25;3.00;;;;;;;;;;5038251;28;20036;-81
2023/10/21 06:07:05;;;;;;;5.40;2.80;;;;;;;;;;5063605;28;20021;-82
2023/10/21 06:09:30;;;;;;;5.95;3.03;;;;;;;;;;5061779;28;20025;-81
2023/10/21 06:11:56;;;;;;;6.30;2.53;;;;;;;;;;5062507;28;20492;-80
2023/10/21 06:14:21;;;;;;;7.75;3.20;;;;;;;;;;5067948;28;20037;-81
2023/10/21 06:16:47;;;;;;;6.25;3.05;;;;;;;;;;5046874;28;20024;-81
2023/10/21 06:19:12;;;;;;;7.28;3.17;;;;;;;;;;5044658;28;20048;-82
2023/10/21 06:21:38;;;;;;;4.82;3.17;;;;;;;;;;5049433;28;20020;-81
2023/10/21 06:24:07;;;;;;;7.00;3.20;;;;;;;;;;5060179;28;20433;-81
2023/10/21 06:26:32;;;;;;;5.72;2.78;;;;;;;;;;5060427;28;20027;-80
2023/10/21 06:28:59;;;;;;;8.45;2.90;;;;;;;;;;5045059;28;20028;-81
2023/10/21 06:31:24;;;;;;;6.90;3.00;;;;;;;;;;5051054;28;20115;-81
2023/10/21 06:33:50;;;;;;;6.47;3.15;;;;;;;;;;5049529;28;20115;-81
2023/10/21 06:36:16;;;;;;;4.95;2.63;;;;;;;;;;5047868;28;20089;-82
2023/10/21 06:38:41;;;;;;;6.25;2.88;;;;;;;;;;5034194;28;20116;-83
2023/10/21 06:41:07;;;;;;;8.65;2.53;;;;;;;;;;5047523;28;20049;-83
2023/10/21 06:43:32;;;;;;;7.50;2.72;;;;;;;;;;5028475;28;20511;-83
2023/10/21 06:45:59;;;;;;;6.20;2.47;;;;;;;;;;5031526;28;20453;-83
2023/10/21 06:48:25;;;;;;;8.02;2.67;;;;;;;;;;5031226;28;20029;-83
2023/10/21 06:50:50;;;;;;;5.57;2.63;;;;;;;;;;5043994;28;20024;-83
2023/10/21 06:53:16;;;;;;;5.13;2.47;;;;;;;;;;5042609;28;20032;-83
2023/10/21 06:55:43;;;;;;;8.35;2.88;;;;;;;;;;5060010;28;20489;-83
2023/10/21 06:58:09;;;;;;;6.55;2.70;;;;;;;;;;5066297;28;20071;-83
2023/10/21 07:00:35;;;;;;;7.88;2.85;;;;;;;;;;5060054;28;20626;-82
2023/10/21 07:03:00;;;;;;;5.75;2.72;;;;;;;;;;5067192;28;20028;-81
2023/10/21 07:05:26;;;;;;;4.97;2.65;;;;;;;;;;5062971;28;20074;-82
2023/10/21 07:07:51;;;;;;;8.23;2.65;;;;;;;;;;5050110;28;20032;-81
2023/10/21 07:10:18;;;;;;;5.32;2.60;;;;;;;;;;5047695;28;20453;-81
2023/10/21 07:12:43;;;;;;;7.05;2.70;;;;;;;;;;5046644;28;20034;-79
2023/10/21 07:15:09;;;;;;;5.68;2.42;;;;;;;;;;5061803;28;20111;-79
2023/10/21 07:17:36;;;;;;;7.97;2.40;;;;;;;;;;5064039;28;20078;-79
2023/10/21 07:20:04;;;;;;;6.07;2.53;;;;;;;;;;5046095;28;20365;-79
2023/10/21 07:22:30;;;;;;;7.25;2.50;;;;;;;;;;5065810;28;20024;-83
2023/10/21 07:24:56;;;;;;;7.20;2.95;;;;;;;;;;5048385;28;20035;-83
2023/10/21 07:27:22;;;;;;;4.88;2.55;;;;;;;;;;5048287;28;20029;-82
2023/10/21 07:29:48;;;;;;;5.32;2.63;;;;;;;;;;5046754;28;20552;-82
2023/10/21 07:32:13;;;;;;;5.75;3.20;;;;;;;;;;5063103;28;20107;-82
2023/10/21 07:34:39;;;;;;;7.55;2.90;;;;;;;;;;5047936;28;20060;-84
2023/10/21 07:37:04;;;;;;;4.88;2.53;;;;;;;;;;5064123;28;20388;-82
2023/10/21 07:39:29;;;;;;;7.43;3.75;;;;;;;;;;5064485;28;20028;-83
2023/10/21 07:41:55;;;;;;;5.82;2.70;;;;;;;;;;5060292;28;20430;-82
2023/10/21 07:44:21;;;;;;;7.18;2.40;;;;;;;;;;5053332;28;20453;-82
2023/10/21 07:46:46;;;;;;;5.35;2.38;;;;;;;;;;5049474;28;20123;-83
2023/10/21 07:49:12;;;;;;;5.00;2.30;;;;;;;;;;5044554;28;20372;-82
2023/10/21 07:51:37;;;;;;;3.53;2.15;;;;;;;;;;5066503;28;20028;-82
2023/10/21 07:54:03;;;;;;;3.72;2.15;;;;;;;;;;5046533;28;20036;-82
2023/10/21 07:56:28;;;;;;;4.35;2.40;;;;;;;;;;5044877;28;20182;-83
2023/10/21 07:58:54;;;;;;;4.18;2.40;;;;;;;;;;5050315;28;21823;-82
2023/10/21 08:01:19;;;;;;;4.28;2.08;;;;;;;;;;5052538;28;20032;-82
2023/10/21 08:03:45;;;;;;;2.47;1.48;;;;;;;;;;5061087;28;20033;-82
2023/10/21 08:06:10;;;;;;;4.20;1.33;;;;;;;;;;5049650;28;20048;-82
2023/10/21 08:08:36;;;;;;;2.63;1.40;;;;;;;;;;5047921;28;20031;-82
2023/10/21 08:11:04;;;;;;;2.92;1.02;;;;;;;;;;5043028;28;20027;-82
2023/10/21 08:13:30;;;;;;;1.85;0.80;;;;;;;;;;5062235;28;21871;-82
2023/10/21 08:15:56;;;;;;;1.70;0.70;;;;;;;;;;5043774;28;20033;-83
2023/10/21 08:18:22;;;;;;;3.50;0.80;;;;;;;;;;5046850;28;20033;-82
2023/10/21 08:20:48;;;;;;;1.38;0.80;;;;;;;;;;5062997;28;20103;-82
2023/10/21 08:23:13;;;;;;;1.27;0.65;;;;;;;;;;5048354;28;20115;-83
2023/10/21 08:25:38;;;;;;;1.20;0.70;;;;;;;;;;5064595;28;20043;-83
2023/10/21 08:28:04;;;;;;;1.75;0.60;;;;;;;;;;5032118;28;20028;-82
2023/10/21 08:30:29;;;;;;;3.58;1.13;;;;;;;;;;5046625;28;20090;-78
2023/10/21 08:32:55;;;;;;;1.92;0.80;;;;;;;;;;5052646;28;20385;-85
2023/10/21 08:35:21;;;;;;;2.03;0.60;;;;;;;;;;5065998;28;20036;-84
2023/10/21 08:37:46;;;;;;;1.35;0.70;;;;;;;;;;5064433;28;20024;-81
2023/10/21 08:40:12;;;;;;;5.00;0.73;;;;;;;;;;5065360;28;20035;-80
2023/10/21 08:42:38;;;;;;;1.88;0.90;;;;;;;;;;5047622;28;20028;-84
2023/10/21 08:45:06;;;;;;;3.30;0.80;;;;;;;;;;5048102;28;20495;-85
2023/10/21 08:47:33;;;;;;;2.00;0.80;;;;;;;;;;5062284;28;20032;-85
2023/10/21 08:50:00;;;;;;;3.95;0.95;;;;;;;;;;5032962;28;20028;-85
2023/10/21 08:52:27;;;;;;;2.97;0.63;;;;;;;;;;5051289;28;20096;-86
2023/10/21 08:54:52;;;;;;;2.10;0.60;;;;;;;;;;5055537;28;20025;-86
2023/10/21 08:57:18;;;;;;;2.67;1.00;;;;;;;;;;5043319;28;20025;-87
2023/10/21 08:59:43;;;;;;;1.23;0.55;;;;;;;;;;5047463;28;20068;-85
2023/10/21 09:02:09;;;;;;;2.60;0.60;;;;;;;;;;5044408;28;20055;-86
2023/10/21 09:04:34;;;;;;;2.17;0.60;;;;;;;;;;5057026;28;20021;-86
2023/10/21 09:07:00;;;;;;;1.80;0.60;;;;;;;;;;5068433;28;20112;-86
2023/10/21 09:09:27;;;;;;;1.30;0.60;;;;;;;;;;5062118;28;20554;-86
2023/10/21 09:12:11;;;;;;;2.40;0.55;;;;;;;;;;5055485;28;20020;-86
2023/10/21 09:14:52;;;;;;;;;;;;;;;;;;5049807;28;20025;-86
2023/10/21 09:17:18;;;;;;;1.73;0.60;;;;;;;;;;5051328;28;19920;-87
2023/10/21 09:19:48;;;;;;;2.00;0.70;;;;;;;;;;5050234;28;20036;-85
2023/10/21 09:22:25;;;;;;;1.13;0.50;;;;;;;;;;5070479;28;20024;-86
2023/10/21 09:25:19;;;;;;;1.10;0.60;;;;;;;;;;5067146;28;20476;-86
2023/10/21 09:27:49;;;;;;;2.05;0.60;;;;;;;;;;5065439;28;20031;-85
2023/10/21 09:30:22;;;;;;;1.83;0.47;;;;;;;;;;5048322;28;20435;-87
2023/10/21 09:32:47;;;;;;;3.42;0.80;;;;;;;;;;5061664;28;20020;-87
2023/10/21 09:35:14;;;;;;;2.00;0.60;;;;;;;;;;5047536;28;20028;-85
2023/10/21 09:37:40;;;;;;;1.15;0.40;;;;;;;;;;5048755;28;20043;-86
2023/10/21 09:40:07;;;;;;;4.85;1.20;;;;;;;;;;5045826;28;20107;-85
2023/10/21 09:42:39;;;;;;;2.58;1.02;;;;;;;;;;5045196;28;20140;-86
2023/10/21 09:45:06;;;;;;;2.55;0.70;;;;;;;;;;5045340;28;20103;-86
2023/10/21 09:47:37;;;;;;;1.40;0.45;;;;;;;;;;5059689;28;20392;-87
2023/10/21 09:50:07;;;;;;;4.22;0.90;;;;;;;;;;5041406;28;20056;-84
2023/10/21 09:52:44;;;;;;;5.30;0.55;;;;;;;;;;5060887;28;20423;-84
2023/10/21 09:55:11;;;;;;;2.78;0.88;;;;;;;;;;5063752;28;20738;-82
2023/10/21 09:57:37;;;;;;;1.92;0.68;;;;;;;;;;5050853;28;20024;-83
2023/10/21 10:00:07;;;;;;;3.75;0.60;;;;;;;;;;5064189;28;20086;-83
2023/10/21 10:02:36;;;;;;;3.17;0.70;;;;;;;;;;5041241;28;20040;-81
2023/10/21 10:05:06;;;;;;;2.78;0.63;;;;;;;;;;5029499;28;20091;-82
2023/10/21 10:07:34;;;;;;;2.45;0.73;;;;;;;;;;5052863;28;20025;-81
2023/10/21 10:10:01;;;;;;;4.47;0.70;;;;;;;;;;5040700;28;20722;-82
2023/10/21 10:12:39;;;;;;;3.20;0.90;;;;;;;;;;5039653;28;20115;-81
2023/10/21 10:15:33;;;;;;;1.42;0.57;;;;;;;;;;5039849;28;20048;-82
2023/10/21 10:18:04;;;;;;;1.15;0.60;;;;;;;;;;5059236;28;20039;-81
2023/10/21 10:20:30;;;;;;;3.55;0.77;;;;;;;;;;5064644;28;20078;-81
2023/10/21 10:23:00;;;;;;;1.92;0.60;;;;;;;;;;5041259;28;20429;-82
2023/10/21 10:25:37;;;;;;;3.50;0.68;;;;;;;;;;5044757;28;20135;-81
2023/10/21 10:28:10;;;;;;;4.07;1.02;;;;;;;;;;5058943;28;20545;-82
2023/10/21 10:30:43;;;;;;;1.92;0.65;;;;;;;;;;5056407;28;20558;-82
2023/10/21 10:33:13;;;;;;;4.15;1.17;;;;;;;;;;5041398;28;20017;-82
2023/10/21 10:36:00;;;;;;;1.98;0.68;;;;;;;;;;5051659;28;20123;-82
2023/10/21 10:38:28;;;;;;;2.22;0.55;;;;;;;;;;5057320;28;20036;-82
2023/10/21 10:41:10;;;;;;;1.67;0.63;;;;;;;;;;5051772;28;20027;-82
2023/10/21 10:43:41;;;;;;;3.45;0.60;;;;;;;;;;5044922;28;20043;-81
2023/10/21 10:46:06;;;;;;;3.20;0.77;;;;;;;;;;5056320;28;20562;-82
2023/10/21 10:48:34;;;;;;;5.65;0.90;;;;;;;;;;5058168;28;20024;-82
2023/10/21 10:51:09;;;;;;;3.67;0.70;;;;;;;;;;5063713;28;20035;-81
2023/10/21 10:53:36;;;;;;;3.42;0.80;;;;;;;;;;5041036;28;20484;-82
2023/10/21 10:56:01;;;;;;;3.58;0.60;;;;;;;;;;5041152;28;20035;-82
2023/10/21 10:58:27;;;;;;;3.55;0.82;;;;;;;;;;5030460;28;20039;-81
2023/10/21 11:00:52;;;;;;;5.03;0.93;;;;;;;;;;5042290;28;20039;-81
2023/10/21 11:03:36;;;;;;;3.83;0.90;;;;;;;;;;5061212;28;20043;-81
2023/10/21 11:06:03;;;;;;;3.70;0.85;;;;;;;;;;5058261;28;20029;-82
2023/10/21 11:08:29;;;;;;;4.80;0.90;;;;;;;;;;5054662;28;20464;-82
2023/10/21 11:11:02;;;;;;;4.25;1.05;;;;;;;;;;5041854;28;20551;-82
2023/10/21 11:13:28;;;;;;;;;;;;;;;;;;5039979;28;20043;-84
2023/10/21 11:15:57;;;;;;;2.60;0.98;;;;;;;;;;5061502;28;19912;-84
2023/10/21 11:18:26;;;;;;;3.88;1.00;;;;;;;;;;5034384;28;20862;-83
2023/10/21 11:20:52;;;;;;;4.30;0.90;;;;;;;;;;5050949;28;20025;-84
2023/10/21 11:23:18;;;;;;;3.65;0.90;;;;;;;;;;5037314;28;20029;-84
2023/10/21 11:25:49;;;;;;;3.83;0.70;;;;;;;;;;5055243;28;20071;-83
2023/10/21 11:28:16;;;;;;;6.50;0.88;;;;;;;;;;5048297;28;20083;-84
2023/10/21 11:30:45;;;;;;;3.58;0.82;;;;;;;;;;5054647;28;20546;-84
2023/10/21 11:33:13;;;;;;;3.25;0.80;;;;;;;;;;5037612;28;20082;-84
2023/10/21 11:35:46;;;;;;;4.78;1.08;;;;;;;;;;5051670;28;20028;-84
2023/10/21 11:38:12;;;;;;;;;;;;;;;;;;5041746;28;20035;-84
2023/10/21 11:40:38;;;;;;;4.53;0.98;;;;;;;;;;5061556;28;20380;-84
2023/10/21 11:43:14;;;;;;;3.65;0.80;;;;;;;;;;5041006;28;20051;-84
2023/10/21 11:45:40;;;;;;;5.22;0.93;;;;;;;;;;5039544;28;20024;-85
2023/10/21 11:48:10;;;;;;;3.42;0.88;;;;;;;;;;5041691;28;20024;-85
2023/10/21 11:50:43;;;;;;;4.00;0.90;;;;;;;;;;5042182;28;20024;-84
2023/10/21 11:53:09;;;;;;;3.92;1.13;;;;;;;;;;5041033;28;20561;-85
2023/10/21 11:59:38;;;;;;;4.55;0.80;;;;;;;;;;5057027;28;20531;-84
2023/10/21 12:07:15;;;;;;;5.53;1.33;;;;;;;;;;5051365;28;20028;-83
2023/10/21 12:12:15;;;;;;;3.33;0.63;;;;;;;;;;5058556;28;20039;-83
2023/10/21 12:15:45;;;;;;;4.88;1.13;;;;;;;;;;5051692;28;20629;-84
2023/10/21 12:33:20;;;;;;;6.03;1.00;;;;;;;;;;5062372;28;20039;-83
2023/10/21 12:38:39;;;;;;;5.90;1.10;;;;;;;;;;5066199;28;20435;-83
2023/10/21 12:43:41;;;;;;;6.85;1.13;;;;;;;;;;5060815;28;20734;-84
2023/10/21 12:46:18;;;;;;;5.60;1.10;;;;;;;;;;5047206;28;20031;-84
2023/10/21 12:48:51;;;;;;;3.90;0.90;;;;;;;;;;5041513;28;20291;-85
2023/10/21 12:51:26;;;;;;;4.18;1.10;;;;;;;;;;5046812;28;20034;-84
2023/10/21 12:54:12;;;;;;;;;;;;;;;;;;;;;
2023/10/21 12:56:38;;;;;;;3.35;0.75;;;;;;;;;;5064656;28;20484;-84
2023/10/21 12:59:11;;;;;;;7.95;1.20;;;;;;;;;;5045887;28;20030;-84
2023/10/21 13:01:39;;;;;;;5.85;0.90;;;;;;;;;;5040351;28;20556;-87
2023/10/21 13:04:12;;;;;;;5.57;1.20;;;;;;;;;;5035665;28;20032;-85
2023/10/21 13:06:47;;;;;;;7.70;1.27;;;;;;;;;;5062905;28;20346;-84
2023/10/21 13:09:29;;;;;;;6.70;1.23;;;;;;;;;;5045424;28;20500;-85
2023/10/21 13:14:52;;;;;;;3.72;0.75;;;;;;;;;;5048195;28;20186;-83
2023/10/21 13:17:23;;;;;;;3.78;0.70;;;;;;;;;;5044509;28;20029;-84
2023/10/21 13:19:54;;;;;;;7.55;1.00;;;;;;;;;;5048492;28;20060;-85
2023/10/21 13:22:20;;;;;;;3.97;0.70;;;;;;;;;;5043083;28;20047;-84
2023/10/21 13:24:45;;;;;;;3.38;0.73;;;;;;;;;;5046083;28;20024;-86
2023/10/21 13:27:10;;;;;;;9.90;1.27;;;;;;;;;;5064723;28;20460;-83
2023/10/21 13:29:36;;;;;;;4.10;1.02;;;;;;;;;;5041549;28;20124;-84
2023/10/21 13:32:01;;;;;;;7.05;1.10;;;;;;;;;;5065755;28;20111;-84
2023/10/21 13:34:27;;;;;;;6.82;0.80;;;;;;;;;;5062436;28;20086;-84
2023/10/21 13:36:52;;;;;;;4.47;0.93;;;;;;;;;;5045222;28;20025;-84
2023/10/21 13:39:18;;;;;;;3.28;0.90;;;;;;;;;;5044237;28;20036;-83
2023/10/21 13:41:45;;;;;;;7.88;1.70;;;;;;;;;;5058303;28;20033;-82
2023/10/21 13:44:11;;;;;;;6.38;1.02;;;;;;;;;;5043774;28;20039;-84
2023/10/21 13:46:37;;;;;;;8.00;1.00;;;;;;;;;;5048151;28;20027;-83
2023/10/21 13:49:13;;;;;;;4.72;1.20;;;;;;;;;;5046319;28;20041;-83
2023/10/21 13:51:39;;;;;;;3.92;1.00;;;;;;;;;;5043912;28;20027;-85
2023/10/21 13:54:04;;;;;;;7.43;1.38;;;;;;;;;;5059235;28;20566;-86
2023/10/21 13:56:31;;;;;;;5.57;1.15;;;;;;;;;;5041690;28;21989;-86
2023/10/21 13:58:56;;;;;;;8.38;1.50;;;;;;;;;;5045768;28;20481;-85
2023/10/21 14:01:22;;;;;;;7.00;1.23;;;;;;;;;;5040368;28;20131;-84
2023/10/21 14:03:48;;;;;;;7.32;1.35;;;;;;;;;;5057835;28;20035;-90
2023/10/21 14:06:13;;;;;;;8.45;1.20;;;;;;;;;;5050018;28;20024;-86
2023/10/21 14:08:39;;;;;;;8.80;1.10;;;;;;;;;;5059964;28;20109;-85
2023/10/21 14:11:08;;;;;;;8.90;1.20;;;;;;;;;;5039583;28;20786;-86
2023/10/21 14:13:34;;;;;;;11.50;1.90;;;;;;;;;;5048059;28;20024;-87
2023/10/21 14:16:11;;;;;;;5.70;1.02;;;;;;;;;;5047950;28;20020;-86
2023/10/21 14:18:37;;;;;;;6.63;1.20;;;;;;;;;;5060185;28;20090;-85
2023/10/21 14:21:03;;;;;;;6.57;1.20;;;;;;;;;;5061845;28;20029;-86
2023/10/21 14:23:29;;;;;;;7.03;0.82;;;;;;;;;;5046113;28;20477;-86
2023/10/21 14:25:59;;;;;;;6.45;1.25;;;;;;;;;;5047018;28;20055;-86
2023/10/21 14:28:26;;;;;;;7.60;1.10;;;;;;;;;;5067512;28;20614;-85
2023/10/21 14:30:54;;;;;;;9.15;1.17;;;;;;;;;;5063479;28;20032;-86
2023/10/21 14:33:21;;;;;;;7.07;1.42;;;;;;;;;;5044535;28;20035;-87
2023/10/21 14:35:51;;;;;;;4.80;1.08;;;;;;;;;;5059049;28;20024;-86
2023/10/21 14:38:18;;;;;;;5.78;1.10;;;;;;;;;;5064549;28;20512;-86
2023/10/21 14:40:44;;;;;;;5.47;1.40;;;;;;;;;;5060487;28;20028;-86
2023/10/21 14:43:11;;;;;;;6.38;1.00;;;;;;;;;;5064577;28;20503;-87
2023/10/21 14:45:39;;;;;;;8.48;1.38;;;;;;;;;;5049882;28;20494;-86
2023/10/21 14:48:07;;;;;;;8.10;1.20;;;;;;;;;;5059309;28;20380;-86
2023/10/21 14:50:33;;;;;;;5.75;1.30;;;;;;;;;;5043819;28;20082;-86
2023/10/21 14:53:00;;;;;;;6.22;1.20;;;;;;;;;;5043396;28;20035;-87
2023/10/21 14:55:28;;;;;;;7.03;1.30;;;;;;;;;;5039244;28;20032;-85
2023/10/21 14:57:54;;;;;;;6.07;1.25;;;;;;;;;;5041309;28;20481;-87
2023/10/21 15:00:23;;;;;;;5.93;1.25;;;;;;;;;;5045852;28;20032;-87
2023/10/21 15:02:50;;;;;;;4.60;0.90;;;;;;;;;;5062596;28;20308;-86
2023/10/21 15:05:16;;;;;;;7.60;1.45;;;;;;;;;;5058091;28;20052;-85
2023/10/21 15:07:43;;;;;;;7.53;1.20;;;;;;;;;;5041726;28;20028;-86
2023/10/21 15:10:15;;;;;;;5.57;1.10;;;;;;;;;;5057619;28;20028;-85
2023/10/21 15:12:45;;;;;;;6.00;1.00;;;;;;;;;;5054936;28;20047;-84
2023/10/21 15:15:12;;;;;;;5.97;1.00;;;;;;;;;;5042718;28;20500;-86
2023/10/21 15:17:41;;;;;;;7.68;1.27;;;;;;;;;;5037304;28;20768;-85
2023/10/21 15:20:08;;;;;;;4.28;0.80;;;;;;;;;;5063568;28;20472;-86
2023/10/21 15:22:35;;;;;;;6.75;1.00;;;;;;;;;;5043325;28;20392;-84